Time;durP1;ratioP1;P1;durP2;ratioP2;P2;SDS_P1;SDS_P2;PMS_P1;PMS_P2;Temp;Humidity;BMP_temperature;BMP_pressure;BME280_temperature;BME280_humidity;BME280_pressure;Samples;Min_cycle;Max_cycle;Signal;HPM_P1;HPM_P2
2023/04/05 00:00:46;;;;;;;5.30;2.73;;;2.10;99.90;;;;;;5074588;28;20261;-62
2023/04/05 00:03:12;;;;;;;5.35;2.85;;;2.00;99.90;;;;;;5074670;28;20033;-62
2023/04/05 00:05:38;;;;;;;6.50;2.97;;;2.00;99.90;;;;;;5074172;28;20040;-63
2023/04/05 00:08:12;;;;;;;5.65;2.42;;;1.90;99.90;;;;;;5074464;28;20032;-62
2023/04/05 00:10:38;;;;;;;6.95;2.90;;;1.90;99.90;;;;;;5074087;28;20025;-67
2023/04/05 00:13:03;;;;;;;5.07;3.07;;;1.90;99.90;;;;;;5074540;28;20029;-63
2023/04/05 00:15:30;;;;;;;4.77;2.07;;;1.80;99.90;;;;;;5074162;28;20146;-62
2023/04/05 00:17:57;;;;;;;4.72;2.75;;;1.70;99.90;;;;;;5074649;28;20032;-62
2023/04/05 00:20:22;;;;;;;4.75;2.75;;;1.60;99.90;;;;;;5074268;28;20323;-63
2023/04/05 00:22:49;;;;;;;5.87;2.87;;;1.60;99.90;;;;;;5074232;28;20025;-63
2023/04/05 00:25:16;;;;;;;9.52;3.38;;;1.50;99.90;;;;;;5074304;28;20411;-63
2023/04/05 00:27:45;;;;;;;5.15;2.50;;;1.40;99.90;;;;;;5073845;28;20056;-75
2023/04/05 00:30:11;;;;;;;7.68;3.60;;;1.40;99.90;;;;;;5074442;28;20120;-63
2023/04/05 00:32:36;;;;;;;7.75;3.40;;;1.30;99.90;;;;;;5074226;28;20028;-62
2023/04/05 00:35:02;;;;;;;6.77;3.20;;;1.30;99.90;;;;;;5074095;28;20426;-62
2023/04/05 00:37:28;;;;;;;5.37;2.97;;;1.30;99.90;;;;;;5074358;28;20021;-63
2023/04/05 00:39:56;;;;;;;9.53;3.10;;;1.30;99.90;;;;;;5073996;28;20021;-62
2023/04/05 00:42:22;;;;;;;10.73;3.35;;;1.30;99.90;;;;;;5074337;28;20024;-62
2023/04/05 00:44:48;;;;;;;4.65;2.15;;;1.30;99.90;;;;;;5073924;28;20446;-64
2023/04/05 00:47:14;;;;;;;10.23;3.70;;;1.30;99.90;;;;;;5074233;28;20041;-63
2023/04/05 00:49:40;;;;;;;6.22;3.47;;;1.30;99.90;;;;;;5074270;28;20040;-63
2023/04/05 00:52:07;;;;;;;5.38;3.00;;;1.20;99.90;;;;;;5074875;28;20073;-62
2023/04/05 00:54:33;;;;;;;6.88;3.28;;;1.20;99.90;;;;;;5076548;28;20028;-63
2023/04/05 00:56:59;;;;;;;8.65;3.33;;;1.20;99.90;;;;;;5077256;28;20043;-62
2023/04/05 00:59:25;;;;;;;12.17;3.43;;;1.10;99.90;;;;;;5077941;28;20024;-62
2023/04/05 01:02:18;;;;;;;5.25;2.92;;;1.10;99.90;;;;;;5077441;28;20028;-75
2023/04/05 01:04:49;;;;;;;11.75;3.80;;;1.10;99.90;;;;;;5077683;28;20033;-63
2023/04/05 01:07:46;;;;;;;12.23;4.15;;;1.00;99.90;;;;;;5077189;28;20047;-75
2023/04/05 01:10:16;;;;;;;10.43;3.70;;;1.10;99.90;;;;;;5075899;28;20029;-63
2023/04/05 01:12:43;;;;;;;11.05;4.38;;;1.10;99.90;;;;;;5077111;28;20054;-63
2023/04/05 01:15:10;;;;;;;;;;;1.10;99.90;;;;;;5077745;28;20020;-63
2023/04/05 01:17:38;;;;;;;9.73;4.10;;;1.10;99.90;;;;;;5076998;28;20298;-63
2023/04/05 01:20:09;;;;;;;9.13;4.32;;;1.10;99.90;;;;;;5077471;28;20117;-63
2023/04/05 01:22:53;;;;;;;7.68;3.95;;;1.10;99.90;;;;;;5076656;28;20016;-62
2023/04/05 01:25:29;;;;;;;8.30;3.78;;;1.20;99.90;;;;;;5077026;28;20408;-63
2023/04/05 01:27:57;;;;;;;8.55;3.58;;;1.30;99.90;;;;;;5076744;28;20044;-62
2023/04/05 01:30:41;;;;;;;9.40;3.60;;;1.30;99.90;;;;;;5077060;28;20323;-62
2023/04/05 01:33:09;;;;;;;8.20;3.35;;;1.20;99.90;;;;;;5076497;28;20020;-62
2023/04/05 01:36:10;;;;;;;9.15;4.10;;;1.20;99.90;;;;;;5077233;28;20029;-62
2023/04/05 01:38:39;;;;;;;6.22;3.75;;;1.20;99.90;;;;;;5062924;28;20055;-62
2023/04/05 01:41:05;;;;;;;8.02;3.30;;;1.10;99.90;;;;;;5076811;28;20024;-62
2023/04/05 01:43:31;;;;;;;6.13;3.83;;;1.10;99.90;;;;;;5076716;28;20308;-63
2023/04/05 01:45:57;;;;;;;9.80;4.80;;;1.10;99.90;;;;;;5076828;28;20033;-63
2023/04/05 01:48:23;;;;;;;7.50;4.23;;;1.10;99.90;;;;;;5076330;28;20028;-63
2023/04/05 01:50:48;;;;;;;6.37;2.93;;;1.10;99.90;;;;;;5075441;28;20028;-63
2023/04/05 01:53:14;;;;;;;6.60;3.47;;;1.10;99.90;;;;;;5076392;28;20017;-63
2023/04/05 01:55:40;;;;;;;10.88;4.20;;;1.10;99.90;;;;;;5076465;28;20070;-63
2023/04/05 01:58:06;;;;;;;14.77;4.57;;;1.10;99.90;;;;;;5075796;28;20029;-62
2023/04/05 02:00:31;;;;;;;10.20;4.43;;;1.10;99.90;;;;;;5076033;28;20020;-75
2023/04/05 02:02:57;;;;;;;8.13;3.57;;;1.00;99.90;;;;;;5076504;28;20024;-63
2023/04/05 02:05:23;;;;;;;7.23;3.50;;;0.90;99.90;;;;;;5076345;28;20094;-62
2023/04/05 02:07:48;;;;;;;10.23;2.90;;;0.90;99.90;;;;;;5074987;28;20056;-63
2023/04/05 02:10:14;;;;;;;7.77;4.20;;;0.90;99.90;;;;;;5076216;28;20074;-62
2023/04/05 02:12:40;;;;;;;9.50;3.70;;;0.80;99.90;;;;;;5076128;28;20027;-62
2023/04/05 02:15:06;;;;;;;7.50;4.70;;;0.70;99.90;;;;;;5075981;28;20532;-63
2023/04/05 02:17:38;;;;;;;12.73;3.85;;;0.70;99.90;;;;;;5076693;28;20024;-63
2023/04/05 02:20:09;;;;;;;10.43;4.18;;;0.70;99.90;;;;;;5062303;28;20450;-63
2023/04/05 02:22:35;;;;;;;11.98;4.25;;;0.70;99.90;;;;;;5076158;28;20024;-63
2023/04/05 02:25:02;;;;;;;11.98;4.97;;;0.70;99.90;;;;;;5075537;28;20031;-63
2023/04/05 02:27:28;;;;;;;12.80;5.50;;;0.70;99.90;;;;;;5075982;28;20057;-63
2023/04/05 02:29:56;;;;;;;9.85;4.63;;;0.80;99.90;;;;;;5075451;28;20067;-76
2023/04/05 02:32:22;;;;;;;12.45;5.57;;;0.80;99.90;;;;;;5076096;28;20020;-62
2023/04/05 02:34:49;;;;;;;12.15;5.43;;;0.80;99.90;;;;;;5075328;28;20155;-63
2023/04/05 02:37:15;;;;;;;14.00;5.68;;;0.80;99.90;;;;;;5075869;28;20652;-62
2023/04/05 02:39:41;;;;;;;10.40;5.03;;;0.80;99.90;;;;;;5074526;28;20031;-62
2023/04/05 02:42:07;;;;;;;14.90;5.87;;;0.80;99.90;;;;;;5075383;28;20115;-62
2023/04/05 02:44:32;;;;;;;11.53;5.23;;;0.80;99.90;;;;;;5075893;28;20025;-63
2023/04/05 02:46:58;;;;;;;12.77;4.00;;;0.80;99.90;;;;;;5075461;28;20089;-63
2023/04/05 02:49:24;;;;;;;10.40;5.37;;;0.80;99.90;;;;;;5075439;28;20367;-62
2023/04/05 02:51:50;;;;;;;11.07;5.70;;;0.70;99.90;;;;;;5075008;28;20353;-62
2023/04/05 02:54:16;;;;;;;16.42;5.60;;;0.70;99.90;;;;;;5074289;28;20024;-62
2023/04/05 02:56:42;;;;;;;10.67;4.50;;;0.70;99.90;;;;;;5075546;28;20028;-63
2023/04/05 02:59:07;;;;;;;14.47;5.90;;;0.70;99.90;;;;;;5075187;28;20415;-62
2023/04/05 03:01:35;;;;;;;12.33;5.87;;;0.70;99.90;;;;;;5075506;28;20036;-63
2023/04/05 03:04:01;;;;;;;10.20;5.28;;;0.70;99.90;;;;;;5074861;28;20020;-75
2023/04/05 03:06:27;;;;;;;14.80;6.22;;;0.70;99.90;;;;;;5075346;28;20028;-63
2023/04/05 03:08:54;;;;;;;13.37;6.40;;;0.70;99.90;;;;;;5074886;28;20036;-62
2023/04/05 03:11:20;;;;;;;11.63;6.25;;;0.70;99.90;;;;;;5074928;28;20016;-62
2023/04/05 03:13:46;;;;;;;9.90;5.70;;;0.70;99.90;;;;;;5075193;28;20419;-75
2023/04/05 03:16:11;;;;;;;13.70;6.60;;;0.70;99.90;;;;;;5074273;28;20025;-63
2023/04/05 03:18:37;;;;;;;18.33;6.30;;;0.60;99.90;;;;;;5075014;28;20024;-63
2023/04/05 03:21:03;;;;;;;14.07;6.47;;;0.60;99.90;;;;;;5074930;28;20170;-62
2023/04/05 03:23:30;;;;;;;15.43;6.60;;;0.60;99.90;;;;;;5075181;28;20127;-63
2023/04/05 03:26:02;;;;;;;16.30;6.78;;;0.60;99.90;;;;;;5074707;28;20060;-62
2023/04/05 03:28:31;;;;;;;17.98;6.80;;;0.50;99.90;;;;;;5074770;28;20044;-63
2023/04/05 03:30:57;;;;;;;14.10;6.10;;;0.50;99.90;;;;;;5073526;28;20021;-62
2023/04/05 03:33:23;;;;;;;11.00;4.18;;;0.50;99.90;;;;;;5074862;28;20048;-63
2023/04/05 03:35:49;;;;;;;14.60;6.53;;;0.50;99.90;;;;;;5073781;28;20059;-63
2023/04/05 03:38:16;;;;;;;14.50;6.40;;;0.50;99.90;;;;;;5074799;28;20257;-75
2023/04/05 03:40:41;;;;;;;14.35;6.30;;;0.40;99.90;;;;;;5074765;28;20036;-63
2023/04/05 03:43:07;;;;;;;9.67;4.50;;;0.40;99.90;;;;;;5074542;28;20347;-62
2023/04/05 03:45:33;;;;;;;15.23;6.03;;;0.40;99.90;;;;;;5074868;28;20017;-63
2023/04/05 03:47:59;;;;;;;20.57;6.87;;;0.30;99.90;;;;;;5074458;28;20028;-63
2023/04/05 03:50:25;;;;;;;10.32;4.38;;;0.30;99.90;;;;;;5073651;28;20036;-63
2023/04/05 03:52:52;;;;;;;14.23;4.87;;;0.30;99.90;;;;;;5074837;28;20311;-63
2023/04/05 03:55:18;;;;;;;16.10;6.43;;;0.30;99.90;;;;;;5074180;28;20027;-75
2023/04/05 03:57:44;;;;;;;7.68;4.38;;;0.20;99.90;;;;;;5074727;28;20028;-62
2023/04/05 04:00:13;;;;;;;14.55;6.78;;;0.20;99.90;;;;;;5074327;28;20020;-63
2023/04/05 04:02:47;;;;;;;12.80;6.80;;;0.20;99.90;;;;;;5074755;28;20032;-63
2023/04/05 04:05:14;;;;;;;15.10;6.25;;;0.20;99.90;;;;;;5073011;28;20031;-63
2023/04/05 04:07:40;;;;;;;13.88;6.78;;;0.10;99.90;;;;;;5074687;28;20064;-63
2023/04/05 04:10:07;;;;;;;12.10;5.53;;;0.10;99.90;;;;;;5074120;28;20025;-62
2023/04/05 04:12:33;;;;;;;14.75;6.35;;;0.10;99.90;;;;;;5074545;28;20025;-63
2023/04/05 04:14:59;;;;;;;12.47;6.03;;;0.10;99.90;;;;;;5074518;28;20055;-63
2023/04/05 04:17:26;;;;;;;11.20;6.43;;;0.10;99.90;;;;;;5073974;28;20035;-63
2023/04/05 04:19:52;;;;;;;12.13;6.28;;;0.10;99.90;;;;;;5074515;28;20021;-75
2023/04/05 04:22:19;;;;;;;14.80;6.30;;;0.10;99.90;;;;;;5074766;28;20120;-63
2023/04/05 04:24:48;;;;;;;18.33;6.72;;;0.10;99.90;;;;;;5073152;28;20300;-63
2023/04/05 04:27:16;;;;;;;16.67;6.30;;;0.20;99.90;;;;;;5075520;28;20049;-63
2023/04/05 04:29:48;;;;;;;17.00;6.43;;;0.20;99.90;;;;;;5077672;28;20021;-63
2023/04/05 04:32:25;;;;;;;17.77;7.00;;;0.20;99.90;;;;;;5078150;28;20095;-63
2023/04/05 04:34:54;;;;;;;13.93;6.45;;;0.20;99.90;;;;;;5077626;28;20020;-63
2023/04/05 04:37:21;;;;;;;17.33;6.80;;;0.30;99.90;;;;;;5077920;28;20024;-62
2023/04/05 04:39:47;;;;;;;16.95;6.47;;;0.30;99.90;;;;;;5077843;28;20052;-63
2023/04/05 04:42:18;;;;;;;15.40;7.50;;;0.30;99.90;;;;;;5077971;28;20134;-75
2023/04/05 04:44:44;;;;;;;14.40;6.93;;;0.40;99.90;;;;;;5077487;28;20043;-63
2023/04/05 04:47:16;;;;;;;15.05;5.78;;;0.40;99.90;;;;;;5077900;28;20115;-63
2023/04/05 04:49:42;;;;;;;15.50;7.25;;;0.40;99.90;;;;;;5077269;28;20024;-75
2023/04/05 04:52:08;;;;;;;11.05;4.95;;;0.40;99.90;;;;;;5077922;28;20028;-63
2023/04/05 04:54:35;;;;;;;13.75;7.00;;;0.40;99.90;;;;;;5077806;28;20025;-63
2023/04/05 04:57:01;;;;;;;;;;;0.40;99.90;;;;;;5077645;28;20065;-63
2023/04/05 04:59:28;;;;;;;17.15;6.68;;;0.40;99.90;;;;;;5077865;28;19908;-63
2023/04/05 05:01:54;;;;;;;14.15;6.68;;;0.40;99.90;;;;;;5077230;28;20506;-63
2023/04/05 05:04:20;;;;;;;12.43;5.50;;;0.30;99.90;;;;;;5077432;28;20411;-63
2023/04/05 05:06:49;;;;;;;15.98;6.65;;;0.40;99.90;;;;;;5076899;28;20052;-75
2023/04/05 05:09:14;;;;;;;16.10;6.70;;;0.40;99.90;;;;;;5077260;28;20214;-63
2023/04/05 05:11:40;;;;;;;12.10;6.53;;;0.40;99.90;;;;;;5076947;28;20085;-63
2023/04/05 05:14:06;;;;;;;10.10;5.00;;;0.40;99.90;;;;;;5076541;28;20031;-63
2023/04/05 05:16:32;;;;;;;13.40;6.73;;;0.40;99.90;;;;;;5076993;28;20099;-63
2023/04/05 05:18:58;;;;;;;6.93;4.85;;;0.30;99.90;;;;;;5077198;28;20151;-63
2023/04/05 05:21:23;;;;;;;17.13;6.93;;;0.40;99.90;;;;;;5076264;28;20096;-63
2023/04/05 05:23:49;;;;;;;14.60;6.70;;;0.50;99.90;;;;;;5077108;28;20024;-64
2023/04/05 05:26:15;;;;;;;12.57;6.15;;;0.50;99.90;;;;;;5076644;28;20024;-63
2023/04/05 05:28:42;;;;;;;9.40;4.90;;;0.50;99.90;;;;;;5076627;28;20052;-62
2023/04/05 05:31:07;;;;;;;14.75;7.13;;;0.40;99.90;;;;;;5076048;28;20024;-62
2023/04/05 05:33:33;;;;;;;18.70;7.40;;;0.50;99.90;;;;;;5075620;28;20321;-63
2023/04/05 05:35:59;;;;;;;14.33;6.10;;;0.50;99.90;;;;;;5075879;28;20087;-63
2023/04/05 05:38:25;;;;;;;15.20;5.40;;;0.50;99.90;;;;;;5075799;28;20039;-63
2023/04/05 05:40:56;;;;;;;15.80;6.70;;;0.50;99.90;;;;;;5076761;28;20261;-63
2023/04/05 05:43:21;;;;;;;12.60;6.53;;;0.60;99.90;;;;;;5076221;28;20016;-64
2023/04/05 05:45:47;;;;;;;16.13;6.67;;;0.60;99.90;;;;;;5076389;28;20391;-62
2023/04/05 05:48:13;;;;;;;13.83;6.90;;;0.60;99.90;;;;;;5076127;28;20036;-63
2023/04/05 05:50:38;;;;;;;11.37;4.63;;;0.70;99.90;;;;;;5076347;28;20086;-63
2023/04/05 05:53:04;;;;;;;14.13;6.33;;;0.70;99.90;;;;;;5075744;28;20032;-63
2023/04/05 05:55:30;;;;;;;17.75;6.43;;;0.70;99.90;;;;;;5076565;28;20362;-62
2023/04/05 05:57:56;;;;;;;14.90;7.13;;;0.70;99.90;;;;;;5076410;28;20152;-62
2023/04/05 06:00:22;;;;;;;9.13;4.93;;;0.80;99.90;;;;;;5076140;28;20160;-63
2023/04/05 06:02:48;;;;;;;14.43;6.82;;;0.90;99.90;;;;;;5076318;28;20103;-63
2023/04/05 06:05:14;;;;;;;16.35;7.22;;;0.90;99.90;;;;;;5075557;28;20110;-63
2023/04/05 06:07:40;;;;;;;11.50;6.43;;;1.00;99.90;;;;;;5076065;28;20024;-63
2023/04/05 06:10:06;;;;;;;16.17;6.83;;;1.10;99.90;;;;;;5075505;28;20350;-63
2023/04/05 06:12:32;;;;;;;16.33;5.47;;;1.20;99.90;;;;;;5076138;28;20095;-63
2023/04/05 06:14:59;;;;;;;14.37;6.43;;;1.20;99.90;;;;;;5075907;28;20433;-64
2023/04/05 06:17:25;;;;;;;16.33;6.43;;;1.30;99.90;;;;;;5075520;28;20043;-62
2023/04/05 06:19:51;;;;;;;10.50;5.90;;;1.40;99.90;;;;;;5075725;28;20307;-63
2023/04/05 06:22:17;;;;;;;20.13;6.80;;;1.50;99.90;;;;;;5075685;28;20070;-63
2023/04/05 06:24:43;;;;;;;15.52;6.47;;;1.60;99.90;;;;;;5075377;28;20272;-63
2023/04/05 06:27:08;;;;;;;11.93;5.20;;;1.60;99.90;;;;;;5075375;28;20439;-62
2023/04/05 06:29:34;;;;;;;15.23;6.90;;;1.70;99.90;;;;;;5075266;28;20412;-62
2023/04/05 06:32:00;;;;;;;14.80;6.43;;;1.80;99.90;;;;;;5075666;28;20028;-62
2023/04/05 06:34:26;;;;;;;12.00;6.23;;;2.00;99.90;;;;;;5074119;28;20070;-63
2023/04/05 06:36:51;;;;;;;11.43;5.27;;;2.10;99.90;;;;;;5075506;28;20016;-63
2023/04/05 06:39:18;;;;;;;12.77;7.07;;;2.10;99.90;;;;;;5075793;28;20454;-63
2023/04/05 06:41:44;;;;;;;24.17;6.78;;;2.30;99.90;;;;;;5075111;28;20024;-76
2023/04/05 06:44:10;;;;;;;12.10;6.47;;;2.40;99.90;;;;;;5075384;28;20342;-63
2023/04/05 06:46:35;;;;;;;20.67;8.30;;;2.70;99.90;;;;;;5075024;28;20088;-63
2023/04/05 06:49:01;;;;;;;11.87;5.23;;;3.20;99.90;;;;;;5075092;28;20304;-63
2023/04/05 06:51:27;;;;;;;15.17;7.77;;;3.60;99.90;;;;;;5073606;28;20027;-76
2023/04/05 06:53:54;;;;;;;14.25;6.53;;;4.20;99.90;;;;;;5075221;28;20437;-63
2023/04/05 06:56:20;;;;;;;14.45;7.68;;;4.70;99.90;;;;;;5075119;28;20120;-63
2023/04/05 06:58:46;;;;;;;18.02;7.32;;;5.00;99.90;;;;;;5074679;28;20023;-75
2023/04/05 07:01:12;;;;;;;15.55;7.15;;;5.10;99.90;;;;;;5075116;28;20040;-63
2023/04/05 07:03:38;;;;;;;12.73;7.20;;;5.40;99.90;;;;;;5074963;28;20028;-62
2023/04/05 07:06:05;;;;;;;14.63;7.03;;;5.80;99.90;;;;;;5075059;28;20109;-62
2023/04/05 07:08:31;;;;;;;;;;;6.40;99.90;;;;;;5074994;28;20063;-63
2023/04/05 07:10:57;;;;;;;11.80;6.38;;;6.80;99.90;;;;;;5074960;28;19904;-63
2023/04/05 07:13:24;;;;;;;15.27;7.27;;;7.20;99.90;;;;;;5074942;28;20301;-62
2023/04/05 07:15:50;;;;;;;;;;;7.90;99.90;;;;;;5074882;28;20029;-78
2023/04/05 07:18:16;;;;;;;13.20;6.35;;;8.50;99.90;;;;;;5074840;28;20310;-63
2023/04/05 07:20:45;;;;;;;13.30;5.70;;;9.10;99.90;;;;;;5074908;28;20052;-63
2023/04/05 07:23:11;;;;;;;12.70;5.95;;;9.80;99.90;;;;;;5074672;28;20048;-63
2023/04/05 07:25:39;;;;;;;10.00;5.67;;;10.30;99.90;;;;;;5074855;28;20055;-63
2023/04/05 07:28:05;;;;;;;11.45;5.93;;;10.90;99.90;;;;;;5074019;28;20045;-63
2023/04/05 07:30:31;;;;;;;12.80;5.77;;;11.20;99.90;;;;;;5074589;28;20035;-63
2023/04/05 07:32:57;;;;;;;13.52;5.75;;;11.70;99.90;;;;;;5074216;28;20549;-76
2023/04/05 07:35:23;;;;;;;8.90;5.18;;;12.10;99.90;;;;;;5074919;28;20162;-63
2023/04/05 07:37:49;;;;;;;13.52;5.25;;;12.50;99.90;;;;;;5074356;28;20123;-63
2023/04/05 07:40:15;;;;;;;9.40;4.97;;;12.50;99.90;;;;;;5074686;28;20107;-63
2023/04/05 07:42:41;;;;;;;9.02;4.75;;;12.80;99.90;;;;;;5074639;28;20063;-64
2023/04/05 07:45:07;;;;;;;8.47;5.33;;;13.00;99.60;;;;;;5074299;28;20117;-63
2023/04/05 07:47:34;;;;;;;9.48;5.32;;;13.10;99.80;;;;;;5074697;28;20070;-63
2023/04/05 07:50:00;;;;;;;;;;;13.00;98.70;;;;;;5074396;28;20036;-64
2023/04/05 07:52:25;;;;;;;11.33;5.17;;;12.90;98.50;;;;;;5074508;28;19912;-63
2023/04/05 07:54:51;;;;;;;8.67;4.97;;;12.90;98.30;;;;;;5074233;28;20017;-63
2023/04/05 07:57:18;;;;;;;10.00;5.37;;;13.00;98.50;;;;;;5074395;28;20031;-63
2023/04/05 07:59:44;;;;;;;10.40;6.03;;;13.10;99.00;;;;;;5074532;28;20108;-64
2023/04/05 08:02:10;;;;;;;10.77;5.25;;;13.20;99.00;;;;;;5077024;28;20105;-63
2023/04/05 08:04:36;;;;;;;10.60;5.43;;;13.50;99.90;;;;;;5078538;28;20028;-64
2023/04/05 08:07:02;;;;;;;9.97;5.57;;;13.70;98.60;;;;;;5078221;28;20020;-63
2023/04/05 08:09:27;;;;;;;13.40;5.43;;;13.80;98.40;;;;;;5078524;28;20346;-63
2023/04/05 08:11:53;;;;;;;10.10;5.07;;;13.70;98.90;;;;;;5078026;28;20021;-63
2023/04/05 08:14:19;;;;;;;10.00;5.37;;;13.80;97.70;;;;;;5078437;28;20024;-63
2023/04/05 08:16:45;;;;;;;12.23;5.47;;;13.80;98.50;;;;;;5078446;28;20340;-64
2023/04/05 08:19:10;;;;;;;8.43;4.90;;;14.00;97.70;;;;;;5077730;28;20360;-64
2023/04/05 08:21:36;;;;;;;8.50;4.90;;;14.10;98.30;;;;;;5076943;28;20020;-63
2023/04/05 08:24:02;;;;;;;9.13;4.67;;;14.40;96.50;;;;;;5076403;28;20020;-75
2023/04/05 08:26:27;;;;;;;6.50;4.37;;;14.20;97.60;;;;;;5066492;28;20322;-64
2023/04/05 08:28:53;;;;;;;7.53;4.63;;;14.30;97.30;;;;;;5077450;28;20049;-64
2023/04/05 08:31:19;;;;;;;5.20;3.70;;;14.80;95.90;;;;;;5078010;28;20403;-63
2023/04/05 08:33:45;;;;;;;6.03;4.43;;;15.00;96.30;;;;;;5077753;28;20032;-64
2023/04/05 08:36:11;;;;;;;11.93;4.70;;;14.80;96.60;;;;;;5066970;28;20028;-63
2023/04/05 08:38:37;;;;;;;6.07;4.13;;;15.10;96.00;;;;;;5077624;28;20020;-64
2023/04/05 08:41:21;;;;;;;8.40;4.07;;;15.30;96.70;;;;;;5077531;28;20081;-73
2023/04/05 08:43:56;;;;;;;8.88;4.30;;;15.80;94.00;;;;;;5077570;28;20067;-63
2023/04/05 08:46:23;;;;;;;12.82;4.10;;;16.00;93.50;;;;;;5065902;28;20021;-75
2023/04/05 08:48:49;;;;;;;8.40;4.28;;;15.60;93.80;;;;;;5061153;28;20025;-64
2023/04/05 08:51:21;;;;;;;7.72;4.53;;;15.70;95.10;;;;;;5064191;28;20108;-63
2023/04/05 08:53:48;;;;;;;7.43;4.28;;;15.60;95.20;;;;;;5077366;28;20016;-64
2023/04/05 08:56:40;;;;;;;5.57;3.95;;;15.70;95.60;;;;;;5077247;28;20025;-64
2023/04/05 08:59:08;;;;;;;7.38;3.85;;;15.60;94.50;;;;;;5065350;28;20037;-64
2023/04/05 09:01:38;;;;;;;7.63;4.10;;;16.10;95.00;;;;;;5066859;28;20017;-64
2023/04/05 09:04:14;;;;;;;8.48;3.92;;;16.30;94.50;;;;;;5077241;28;20101;-64
2023/04/05 09:06:40;;;;;;;8.95;3.83;;;16.40;94.60;;;;;;5066643;28;20044;-69
2023/04/05 09:09:07;;;;;;;7.17;3.53;;;16.20;93.70;;;;;;5076954;28;20067;-64
2023/04/05 09:11:36;;;;;;;4.43;3.45;;;16.30;92.00;;;;;;5076865;28;20085;-64
2023/04/05 09:14:03;;;;;;;6.03;3.78;;;16.00;92.10;;;;;;5075945;28;20021;-64
2023/04/05 09:16:37;;;;;;;5.35;3.40;;;15.40;92.70;;;;;;5076950;28;20044;-63
2023/04/05 09:19:03;;;;;;;8.35;3.85;;;15.50;92.50;;;;;;5076927;28;20030;-64
2023/04/05 09:21:29;;;;;;;4.88;3.50;;;15.70;94.30;;;;;;5077200;28;20016;-64
2023/04/05 09:23:55;;;;;;;4.33;2.90;;;15.80;94.30;;;;;;5076905;28;20040;-64
2023/04/05 09:26:24;;;;;;;8.03;3.47;;;15.20;88.70;;;;;;5076650;28;20035;-64
2023/04/05 09:28:50;;;;;;;8.05;4.20;;;14.00;91.70;;;;;;5076452;28;20054;-63
2023/04/05 09:31:49;;;;;;;9.77;3.78;;;14.20;91.50;;;;;;5076769;28;20028;-75
2023/04/05 09:34:20;;;;;;;7.60;3.42;;;14.40;94.60;;;;;;4995415;28;20387;-63
2023/04/05 09:36:46;;;;;;;7.13;3.42;;;14.20;94.30;;;;;;4995556;28;20030;-64
2023/04/05 09:39:12;;;;;;;6.03;3.63;;;14.60;94.10;;;;;;4978866;28;20049;-64
2023/04/05 09:41:38;;;;;;;7.18;3.72;;;15.30;95.30;;;;;;4994913;28;20461;-63
2023/04/05 09:44:04;;;;;;;9.00;4.20;;;15.70;91.20;;;;;;4995199;28;20041;-76
2023/04/05 09:46:32;;;;;;;5.50;3.53;;;15.70;92.60;;;;;;4994814;28;20353;-64
2023/04/05 09:48:58;;;;;;;6.60;3.47;;;15.40;93.10;;;;;;4978835;28;20299;-64
2023/04/05 09:51:31;;;;;;;8.48;4.20;;;15.40;91.90;;;;;;4978690;28;20097;-63
2023/04/05 09:54:02;;;;;;;8.73;4.20;;;15.40;90.00;;;;;;4994788;28;20062;-64
2023/04/05 09:56:31;;;;;;;6.30;3.95;;;15.00;92.80;;;;;;4994517;28;20041;-63
2023/04/05 09:59:04;;;;;;;6.88;3.53;;;15.20;92.20;;;;;;4994751;28;20411;-75
2023/04/05 10:01:30;;;;;;;7.80;3.72;;;15.40;93.80;;;;;;4995090;28;20038;-65
2023/04/05 10:03:58;;;;;;;8.73;3.55;;;15.80;93.50;;;;;;4994516;28;20439;-64
2023/04/05 10:06:42;;;;;;;6.15;4.25;;;16.00;93.30;;;;;;4994916;28;20040;-74
2023/04/05 10:09:10;;;;;;;8.77;4.35;;;14.30;90.60;;;;;;5012732;28;20043;-63
2023/04/05 10:11:37;;;;;;;6.75;3.65;;;12.50;93.30;;;;;;5076309;28;20074;-63
2023/04/05 10:14:05;;;;;;;6.43;4.10;;;12.50;93.10;;;;;;5075447;28;20029;-64
2023/04/05 10:16:58;;;;;;;7.80;3.90;;;12.60;94.40;;;;;;5075635;28;20025;-64
2023/04/05 10:19:30;;;;;;;6.28;4.13;;;13.00;93.70;;;;;;5075318;28;20012;-63
2023/04/05 10:22:01;;;;;;;14.70;4.47;;;12.90;92.20;;;;;;5075767;28;20025;-63
2023/04/05 10:24:36;;;;;;;8.50;3.90;;;12.60;92.80;;;;;;5075589;28;20048;-62
2023/04/05 10:27:11;;;;;;;11.88;4.53;;;12.20;92.30;;;;;;5074579;28;20048;-63
2023/04/05 10:30:07;;;;;;;8.27;4.03;;;11.80;92.80;;;;;;5075356;28;20024;-62
2023/04/05 10:33:05;;;;;;;8.07;4.40;;;11.40;93.00;;;;;;5075655;28;20025;-62
2023/04/05 10:35:55;;;;;;;10.85;4.45;;;11.10;93.70;;;;;;5032729;28;20112;-63
2023/04/05 10:38:28;;;;;;;7.93;3.25;;;11.20;95.80;;;;;;5074055;28;20468;-63
2023/04/05 10:40:58;;;;;;;7.75;4.47;;;11.40;95.20;;;;;;5075705;28;20021;-64
2023/04/05 10:43:26;;;;;;;9.02;4.18;;;11.50;94.00;;;;;;5074983;28;20017;-63
2023/04/05 10:45:54;;;;;;;13.20;5.50;;;11.70;94.50;;;;;;5074163;28;20047;-63
2023/04/05 10:48:41;;;;;;;10.60;4.43;;;11.60;94.10;;;;;;5075019;28;20426;-63
2023/04/05 10:51:07;;;;;;;6.22;4.05;;;11.40;93.80;;;;;;5075204;28;20070;-62
2023/04/05 10:53:35;;;;;;;10.57;4.33;;;11.50;92.40;;;;;;5074800;28;20012;-63
2023/04/05 10:56:02;;;;;;;5.70;2.92;;;11.50;94.30;;;;;;5075202;28;20048;-62
2023/04/05 10:58:29;;;;;;;8.38;4.00;;;11.40;94.60;;;;;;5074596;28;20017;-63
2023/04/05 11:00:55;;;;;;;8.60;4.70;;;11.10;93.50;;;;;;5075033;28;20028;-74
2023/04/05 11:03:40;;;;;;;11.57;4.57;;;11.50;94.20;;;;;;5075051;28;20017;-64
2023/04/05 11:06:28;;;;;;;9.23;4.10;;;12.00;93.30;;;;;;5074881;28;20028;-63
2023/04/05 11:08:59;;;;;;;7.55;4.60;;;12.00;93.40;;;;;;5074578;28;20020;-63
2023/04/05 11:11:26;;;;;;;9.77;4.75;;;11.90;93.00;;;;;;5075055;28;20031;-63
2023/04/05 11:13:57;;;;;;;7.55;3.92;;;11.80;94.50;;;;;;5074947;28;20043;-63
2023/04/05 11:16:37;;;;;;;9.15;4.57;;;11.70;94.30;;;;;;5074692;28;20104;-63
2023/04/05 11:19:03;;;;;;;8.18;4.35;;;11.80;93.40;;;;;;5074586;28;20081;-74
2023/04/05 11:21:30;;;;;;;10.10;4.63;;;12.00;94.60;;;;;;5075092;28;20021;-63
2023/04/05 11:24:08;;;;;;;5.97;4.20;;;11.70;93.20;;;;;;5074999;28;20071;-63
2023/04/05 11:26:40;;;;;;;7.70;4.30;;;11.70;95.00;;;;;;5073618;28;20021;-63
2023/04/05 11:29:06;;;;;;;10.35;4.60;;;11.90;94.20;;;;;;5074701;28;20439;-63
2023/04/05 11:31:32;;;;;;;7.50;4.03;;;11.90;93.70;;;;;;5074424;28;20024;-63
2023/04/05 11:34:11;;;;;;;8.00;4.60;;;12.20;94.30;;;;;;5074665;28;20051;-74
2023/04/05 11:36:46;;;;;;;8.55;4.32;;;12.60;94.00;;;;;;5074277;28;20315;-63
2023/04/05 11:39:21;;;;;;;10.02;4.70;;;13.00;94.10;;;;;;5074881;28;20029;-63
2023/04/05 11:41:53;;;;;;;12.35;5.53;;;13.40;93.10;;;;;;5074073;28;20025;-64
2023/04/05 11:44:20;;;;;;;10.82;4.85;;;13.30;92.10;;;;;;5074547;28;20028;-63
2023/04/05 11:46:46;;;;;;;8.30;4.85;;;13.00;93.20;;;;;;5074372;28;20036;-75
2023/04/05 11:49:12;;;;;;;9.27;4.00;;;13.00;92.70;;;;;;5074453;28;20029;-72
2023/04/05 11:51:43;;;;;;;11.98;4.78;;;13.50;94.30;;;;;;5074237;28;20028;-64
2023/04/05 11:54:11;;;;;;;8.82;4.47;;;13.70;93.30;;;;;;5074907;28;20111;-64
2023/04/05 11:56:37;;;;;;;8.43;4.55;;;13.80;92.30;;;;;;5074490;28;20307;-64
2023/04/05 11:59:02;;;;;;;5.47;3.73;;;13.90;93.40;;;;;;5074584;28;20035;-64
2023/04/05 12:01:28;;;;;;;7.93;4.37;;;13.60;93.50;;;;;;5074626;28;20496;-69
2023/04/05 12:03:55;;;;;;;7.30;4.57;;;13.90;92.40;;;;;;5074260;28;20107;-75
2023/04/05 12:06:22;;;;;;;9.18;5.00;;;13.70;92.70;;;;;;5074531;28;20332;-64
2023/04/05 12:08:49;;;;;;;9.80;4.53;;;14.10;94.80;;;;;;5072842;28;20060;-64
2023/04/05 12:11:24;;;;;;;7.95;4.20;;;14.50;92.50;;;;;;5074074;28;20426;-64
2023/04/05 12:13:54;;;;;;;8.65;5.00;;;14.70;92.20;;;;;;5074419;28;20033;-64
2023/04/05 12:16:20;;;;;;;11.45;4.80;;;15.20;93.40;;;;;;5074246;28;20024;-64
2023/04/05 12:19:01;;;;;;;9.77;5.43;;;15.40;92.00;;;;;;5074979;28;20025;-64
2023/04/05 12:21:27;;;;;;;10.13;5.03;;;15.50;91.80;;;;;;5060207;28;20091;-64
2023/04/05 12:23:54;;;;;;;7.90;4.40;;;15.20;91.80;;;;;;5074410;28;20028;-64
2023/04/05 12:26:22;;;;;;;8.85;5.65;;;14.30;91.30;;;;;;5074084;28;20729;-65
2023/04/05 12:28:52;;;;;;;8.40;5.10;;;14.40;92.90;;;;;;5074079;28;20056;-64
2023/04/05 12:31:38;;;;;;;9.15;5.20;;;14.80;93.70;;;;;;5072744;28;20074;-64
2023/04/05 12:34:04;;;;;;;9.45;5.43;;;15.10;92.50;;;;;;5074191;28;20478;-64
2023/04/05 12:36:33;;;;;;;7.10;4.50;;;15.10;93.00;;;;;;5074019;28;20124;-64
2023/04/05 12:39:00;;;;;;;9.57;4.88;;;15.20;92.50;;;;;;5074558;28;20032;-64
2023/04/05 12:41:30;;;;;;;7.40;4.53;;;15.40;93.30;;;;;;5073739;28;20023;-64
2023/04/05 12:44:04;;;;;;;9.65;5.20;;;15.50;93.50;;;;;;5074216;28;20062;-65
2023/04/05 12:46:39;;;;;;;9.55;4.93;;;15.80;94.10;;;;;;5073682;28;20056;-64
2023/04/05 12:49:05;;;;;;;6.93;4.78;;;15.40;91.50;;;;;;5076411;28;20052;-64
2023/04/05 12:51:31;;;;;;;6.78;5.18;;;15.70;91.80;;;;;;5077237;28;20028;-64
2023/04/05 12:54:02;;;;;;;7.70;4.90;;;15.60;92.10;;;;;;5076665;28;20078;-64